sensor_id;sensor_type;location;lat;lon;timestamp;P1;durP1;ratioP1;P2;durP2;ratioP2
56271;SDS011;42177;48.914;18.160;2024-01-30T00:00:32;16.4;;;11.7;;
56271;SDS011;42177;48.914;18.160;2024-01-30T00:05:32;15.4;;;9.5;;
56271;SDS011;42177;48.914;18.160;2024-01-30T00:10:32;15.4;;;9.5;;
56271;SDS011;42177;48.914;18.160;2024-01-30T00:15:32;13.3;;;9.6;;
56271;SDS011;42177;48.914;18.160;2024-01-30T00:20:32;13.3;;;9.6;;
56271;SDS011;42177;48.914;18.160;2024-01-30T00:25:32;11.4;;;8.5;;
56271;SDS011;42177;48.914;18.160;2024-01-30T00:30:32;11.4;;;8.5;;
56271;SDS011;42177;48.914;18.160;2024-01-30T00:35:32;11.9;;;8.5;;
56271;SDS011;42177;48.914;18.160;2024-01-30T00:40:32;11.9;;;8.5;;
56271;SDS011;42177;48.914;18.160;2024-01-30T00:45:32;13.2;;;9.5;;
56271;SDS011;42177;48.914;18.160;2024-01-30T00:50:32;13.2;;;9.5;;
56271;SDS011;42177;48.914;18.160;2024-01-30T00:55:32;14;;;8.7;;
56271;SDS011;42177;48.914;18.160;2024-01-30T01:00:32;14;;;8.7;;
56271;SDS011;42177;48.914;18.160;2024-01-30T01:05:32;14.3;;;9.3;;
56271;SDS011;42177;48.914;18.160;2024-01-30T01:10:32;14.3;;;9.3;;
56271;SDS011;42177;48.914;18.160;2024-01-30T01:15:32;14.2;;;10.3;;
56271;SDS011;42177;48.914;18.160;2024-01-30T01:20:32;14.2;;;10.3;;
56271;SDS011;42177;48.914;18.160;2024-01-30T01:25:32;14.4;;;10.3;;
56271;SDS011;42177;48.914;18.160;2024-01-30T01:30:32;14.4;;;10.3;;
56271;SDS011;42177;48.914;18.160;2024-01-30T01:35:32;18.9;;;12.4;;
56271;SDS011;42177;48.914;18.160;2024-01-30T01:40:32;18.9;;;12.4;;
56271;SDS011;42177;48.914;18.160;2024-01-30T01:45:32;17.9;;;12.6;;
56271;SDS011;42177;48.914;18.160;2024-01-30T01:50:32;17.9;;;12.6;;
56271;SDS011;42177;48.914;18.160;2024-01-30T01:55:32;14.1;;;9.2;;
56271;SDS011;42177;48.914;18.160;2024-01-30T02:00:32;14.1;;;9.2;;
56271;SDS011;42177;48.914;18.160;2024-01-30T02:05:32;14.2;;;9.8;;
56271;SDS011;42177;48.914;18.160;2024-01-30T02:10:32;14.2;;;9.8;;
56271;SDS011;42177;48.914;18.160;2024-01-30T02:15:32;13.7;;;10.4;;
56271;SDS011;42177;48.914;18.160;2024-01-30T02:20:32;13.7;;;10.4;;
56271;SDS011;42177;48.914;18.160;2024-01-30T02:25:33;14.8;;;9.7;;
56271;SDS011;42177;48.914;18.160;2024-01-30T02:30:32;14.8;;;9.7;;
56271;SDS011;42177;48.914;18.160;2024-01-30T02:35:32;14.4;;;10.2;;
56271;SDS011;42177;48.914;18.160;2024-01-30T02:40:32;14.4;;;10.2;;
56271;SDS011;42177;48.914;18.160;2024-01-30T02:45:33;12.9;;;9.6;;
56271;SDS011;42177;48.914;18.160;2024-01-30T02:50:33;12.9;;;9.6;;
56271;SDS011;42177;48.914;18.160;2024-01-30T02:55:32;14.4;;;9.7;;
56271;SDS011;42177;48.914;18.160;2024-01-30T03:00:32;14.4;;;9.7;;
56271;SDS011;42177;48.914;18.160;2024-01-30T03:05:32;15.3;;;10;;
56271;SDS011;42177;48.914;18.160;2024-01-30T03:10:32;15.3;;;10;;
56271;SDS011;42177;48.914;18.160;2024-01-30T03:15:32;15;;;10.7;;
56271;SDS011;42177;48.914;18.160;2024-01-30T03:20:32;15;;;10.7;;
56271;SDS011;42177;48.914;18.160;2024-01-30T03:25:32;15.7;;;10.4;;
56271;SDS011;42177;48.914;18.160;2024-01-30T03:30:34;15.7;;;10.4;;
56271;SDS011;42177;48.914;18.160;2024-01-30T03:35:32;13.1;;;9.8;;
56271;SDS011;42177;48.914;18.160;2024-01-30T03:40:32;13.1;;;9.8;;
56271;SDS011;42177;48.914;18.160;2024-01-30T03:45:32;14;;;9.6;;
56271;SDS011;42177;48.914;18.160;2024-01-30T03:50:32;14;;;9.6;;
56271;SDS011;42177;48.914;18.160;2024-01-30T03:55:32;16.1;;;11.2;;
56271;SDS011;42177;48.914;18.160;2024-01-30T04:00:32;16.1;;;11.2;;
56271;SDS011;42177;48.914;18.160;2024-01-30T04:05:32;15.2;;;10.5;;
56271;SDS011;42177;48.914;18.160;2024-01-30T04:10:32;15.2;;;10.5;;
56271;SDS011;42177;48.914;18.160;2024-01-30T04:15:32;15.1;;;10.9;;
56271;SDS011;42177;48.914;18.160;2024-01-30T04:20:32;15.1;;;10.9;;
56271;SDS011;42177;48.914;18.160;2024-01-30T04:25:32;15.5;;;11;;
56271;SDS011;42177;48.914;18.160;2024-01-30T04:30:32;15.5;;;11;;
56271;SDS011;42177;48.914;18.160;2024-01-30T04:35:32;16.2;;;11;;
56271;SDS011;42177;48.914;18.160;2024-01-30T04:40:32;16.2;;;11;;
56271;SDS011;42177;48.914;18.160;2024-01-30T04:45:32;14.3;;;10.2;;
56271;SDS011;42177;48.914;18.160;2024-01-30T04:50:32;14.3;;;10.2;;
56271;SDS011;42177;48.914;18.160;2024-01-30T04:55:32;14.6;;;10.6;;
56271;SDS011;42177;48.914;18.160;2024-01-30T05:00:32;14.6;;;10.6;;
56271;SDS011;42177;48.914;18.160;2024-01-30T05:05:32;14.6;;;9.8;;
56271;SDS011;42177;48.914;18.160;2024-01-30T05:10:32;14.6;;;9.8;;
56271;SDS011;42177;48.914;18.160;2024-01-30T05:15:32;15.2;;;9.6;;
56271;SDS011;42177;48.914;18.160;2024-01-30T05:20:32;15.2;;;9.6;;
56271;SDS011;42177;48.914;18.160;2024-01-30T05:25:32;14.1;;;10;;
56271;SDS011;42177;48.914;18.160;2024-01-30T05:30:32;14.1;;;10;;
56271;SDS011;42177;48.914;18.160;2024-01-30T05:35:32;15.7;;;10.5;;
56271;SDS011;42177;48.914;18.160;2024-01-30T05:40:32;15.7;;;10.5;;
56271;SDS011;42177;48.914;18.160;2024-01-30T05:45:32;15;;;10.4;;
56271;SDS011;42177;48.914;18.160;2024-01-30T05:50:32;15;;;10.4;;
56271;SDS011;42177;48.914;18.160;2024-01-30T05:55:32;14.2;;;10.9;;
56271;SDS011;42177;48.914;18.160;2024-01-30T06:00:32;14.2;;;10.9;;
56271;SDS011;42177;48.914;18.160;2024-01-30T06:05:32;15.9;;;11.6;;
56271;SDS011;42177;48.914;18.160;2024-01-30T06:10:32;15.9;;;11.6;;
56271;SDS011;42177;48.914;18.160;2024-01-30T06:15:32;15.5;;;12;;
56271;SDS011;42177;48.914;18.160;2024-01-30T06:20:32;15.5;;;12;;
56271;SDS011;42177;48.914;18.160;2024-01-30T06:25:32;15.8;;;10.9;;
56271;SDS011;42177;48.914;18.160;2024-01-30T06:30:32;15.8;;;10.9;;
56271;SDS011;42177;48.914;18.160;2024-01-30T06:35:32;15.3;;;10.4;;
56271;SDS011;42177;48.914;18.160;2024-01-30T06:40:32;15.3;;;10.4;;
56271;SDS011;42177;48.914;18.160;2024-01-30T06:45:32;15.4;;;10.1;;
56271;SDS011;42177;48.914;18.160;2024-01-30T06:50:32;15.4;;;10.1;;
56271;SDS011;42177;48.914;18.160;2024-01-30T06:55:32;15.7;;;10.4;;
56271;SDS011;42177;48.914;18.160;2024-01-30T07:00:32;15.7;;;10.4;;
56271;SDS011;42177;48.914;18.160;2024-01-30T07:05:32;13.1;;;9.4;;
56271;SDS011;42177;48.914;18.160;2024-01-30T07:10:32;13.1;;;9.4;;
56271;SDS011;42177;48.914;18.160;2024-01-30T07:15:32;14;;;10.6;;
56271;SDS011;42177;48.914;18.160;2024-01-30T07:20:32;14;;;10.6;;
56271;SDS011;42177;48.914;18.160;2024-01-30T07:25:32;13.4;;;10.1;;
56271;SDS011;42177;48.914;18.160;2024-01-30T07:30:32;13.4;;;10.1;;
56271;SDS011;42177;48.914;18.160;2024-01-30T07:35:32;13.3;;;9.9;;
56271;SDS011;42177;48.914;18.160;2024-01-30T07:40:32;13.3;;;9.9;;
56271;SDS011;42177;48.914;18.160;2024-01-30T07:45:32;11.7;;;8.7;;
56271;SDS011;42177;48.914;18.160;2024-01-30T07:50:32;11.7;;;8.7;;
56271;SDS011;42177;48.914;18.160;2024-01-30T07:55:32;14.3;;;9.4;;
56271;SDS011;42177;48.914;18.160;2024-01-30T08:00:32;14.3;;;9.4;;
56271;SDS011;42177;48.914;18.160;2024-01-30T08:05:32;13.7;;;9.3;;
56271;SDS011;42177;48.914;18.160;2024-01-30T08:10:32;13.7;;;9.3;;
56271;SDS011;42177;48.914;18.160;2024-01-30T08:15:32;12.1;;;9.1;;
56271;SDS011;42177;48.914;18.160;2024-01-30T08:20:32;12.1;;;9.1;;
56271;SDS011;42177;48.914;18.160;2024-01-30T08:25:32;12.6;;;9.4;;
56271;SDS011;42177;48.914;18.160;2024-01-30T08:30:32;12.6;;;9.4;;
56271;SDS011;42177;48.914;18.160;2024-01-30T08:35:32;13.2;;;8.8;;
56271;SDS011;42177;48.914;18.160;2024-01-30T08:40:32;13.2;;;8.8;;
56271;SDS011;42177;48.914;18.160;2024-01-30T08:45:32;12.5;;;8.4;;
56271;SDS011;42177;48.914;18.160;2024-01-30T08:50:32;12.5;;;8.4;;
56271;SDS011;42177;48.914;18.160;2024-01-30T08:55:32;11.3;;;8;;
56271;SDS011;42177;48.914;18.160;2024-01-30T09:00:32;11.3;;;8;;
56271;SDS011;42177;48.914;18.160;2024-01-30T09:05:32;11.4;;;8.7;;
56271;SDS011;42177;48.914;18.160;2024-01-30T09:10:32;11.4;;;8.7;;
56271;SDS011;42177;48.914;18.160;2024-01-30T09:15:32;12.1;;;9.3;;
56271;SDS011;42177;48.914;18.160;2024-01-30T09:20:32;12.1;;;9.3;;
56271;SDS011;42177;48.914;18.160;2024-01-30T09:25:32;10.7;;;7.8;;
56271;SDS011;42177;48.914;18.160;2024-01-30T09:30:32;10.7;;;7.8;;
56271;SDS011;42177;48.914;18.160;2024-01-30T09:35:32;12.2;;;8.2;;
56271;SDS011;42177;48.914;18.160;2024-01-30T09:40:32;12.2;;;8.2;;
56271;SDS011;42177;48.914;18.160;2024-01-30T09:45:32;10.7;;;8;;
56271;SDS011;42177;48.914;18.160;2024-01-30T09:50:32;10.7;;;8;;
56271;SDS011;42177;48.914;18.160;2024-01-30T09:55:32;10.9;;;8.1;;
56271;SDS011;42177;48.914;18.160;2024-01-30T10:00:32;10.9;;;8.1;;
56271;SDS011;42177;48.914;18.160;2024-01-30T10:05:32;9.9;;;7.9;;
56271;SDS011;42177;48.914;18.160;2024-01-30T10:10:32;9.9;;;7.9;;
56271;SDS011;42177;48.914;18.160;2024-01-30T10:15:32;12.1;;;7.9;;
56271;SDS011;42177;48.914;18.160;2024-01-30T10:20:32;12.1;;;7.9;;
56271;SDS011;42177;48.914;18.160;2024-01-30T10:25:32;10.2;;;7.3;;
56271;SDS011;42177;48.914;18.160;2024-01-30T10:30:32;10.2;;;7.3;;
56271;SDS011;42177;48.914;18.160;2024-01-30T10:35:32;9;;;7.1;;
56271;SDS011;42177;48.914;18.160;2024-01-30T10:40:32;9;;;7.1;;
56271;SDS011;42177;48.914;18.160;2024-01-30T10:45:32;9.5;;;6.8;;
56271;SDS011;42177;48.914;18.160;2024-01-30T10:50:32;9.5;;;6.8;;
56271;SDS011;42177;48.914;18.160;2024-01-30T10:55:32;9.9;;;7.7;;
56271;SDS011;42177;48.914;18.160;2024-01-30T11:00:32;9.9;;;7.7;;
56271;SDS011;42177;48.914;18.160;2024-01-30T11:05:32;10.5;;;8.1;;
56271;SDS011;42177;48.914;18.160;2024-01-30T11:10:32;10.5;;;8.1;;
56271;SDS011;42177;48.914;18.160;2024-01-30T11:15:32;10.3;;;7.6;;
56271;SDS011;42177;48.914;18.160;2024-01-30T11:20:32;10.3;;;7.6;;
56271;SDS011;42177;48.914;18.160;2024-01-30T11:25:33;9.6;;;7.9;;
56271;SDS011;42177;48.914;18.160;2024-01-30T11:30:32;9.6;;;7.9;;
56271;SDS011;42177;48.914;18.160;2024-01-30T11:35:33;10.1;;;7.6;;
56271;SDS011;42177;48.914;18.160;2024-01-30T11:40:33;10.1;;;7.6;;
56271;SDS011;42177;48.914;18.160;2024-01-30T11:45:33;10.5;;;7.8;;
56271;SDS011;42177;48.914;18.160;2024-01-30T11:50:33;10.5;;;7.8;;
56271;SDS011;42177;48.914;18.160;2024-01-30T11:55:33;10.3;;;8.6;;
56271;SDS011;42177;48.914;18.160;2024-01-30T12:00:32;10.3;;;8.6;;
56271;SDS011;42177;48.914;18.160;2024-01-30T12:05:32;11.9;;;9.2;;
56271;SDS011;42177;48.914;18.160;2024-01-30T12:10:32;11.9;;;9.2;;
56271;SDS011;42177;48.914;18.160;2024-01-30T12:15:32;10.7;;;8.5;;
56271;SDS011;42177;48.914;18.160;2024-01-30T12:20:32;10.7;;;8.5;;
56271;SDS011;42177;48.914;18.160;2024-01-30T12:25:32;9.5;;;8.2;;
56271;SDS011;42177;48.914;18.160;2024-01-30T12:30:34;9.5;;;8.2;;
56271;SDS011;42177;48.914;18.160;2024-01-30T12:35:32;10.4;;;8;;
56271;SDS011;42177;48.914;18.160;2024-01-30T12:40:33;10.4;;;8;;
56271;SDS011;42177;48.914;18.160;2024-01-30T12:45:32;10.4;;;7.9;;
56271;SDS011;42177;48.914;18.160;2024-01-30T12:50:32;10.4;;;7.9;;
56271;SDS011;42177;48.914;18.160;2024-01-30T12:55:32;10.6;;;8.7;;
56271;SDS011;42177;48.914;18.160;2024-01-30T13:00:32;10.6;;;8.7;;
56271;SDS011;42177;48.914;18.160;2024-01-30T13:05:32;9.5;;;7.7;;
56271;SDS011;42177;48.914;18.160;2024-01-30T13:10:32;9.5;;;7.7;;
56271;SDS011;42177;48.914;18.160;2024-01-30T13:15:32;10.1;;;7.7;;
56271;SDS011;42177;48.914;18.160;2024-01-30T13:20:32;10.1;;;7.7;;
56271;SDS011;42177;48.914;18.160;2024-01-30T13:25:32;9.9;;;7.4;;
56271;SDS011;42177;48.914;18.160;2024-01-30T13:30:32;9.9;;;7.4;;
56271;SDS011;42177;48.914;18.160;2024-01-30T13:35:32;8.9;;;7.5;;
56271;SDS011;42177;48.914;18.160;2024-01-30T13:40:32;8.9;;;7.5;;
56271;SDS011;42177;48.914;18.160;2024-01-30T13:45:32;9.6;;;7.2;;
56271;SDS011;42177;48.914;18.160;2024-01-30T13:50:32;9.6;;;7.2;;
56271;SDS011;42177;48.914;18.160;2024-01-30T13:55:32;10;;;6.7;;
56271;SDS011;42177;48.914;18.160;2024-01-30T14:00:33;10;;;6.7;;
56271;SDS011;42177;48.914;18.160;2024-01-30T14:05:32;9.5;;;6.9;;
56271;SDS011;42177;48.914;18.160;2024-01-30T14:10:32;9.5;;;6.9;;
56271;SDS011;42177;48.914;18.160;2024-01-30T14:15:32;10.5;;;7.2;;
56271;SDS011;42177;48.914;18.160;2024-01-30T14:20:32;10.5;;;7.2;;
56271;SDS011;42177;48.914;18.160;2024-01-30T14:25:32;8.8;;;6.6;;
56271;SDS011;42177;48.914;18.160;2024-01-30T14:30:32;8.8;;;6.6;;
56271;SDS011;42177;48.914;18.160;2024-01-30T14:35:32;9.7;;;6;;
56271;SDS011;42177;48.914;18.160;2024-01-30T14:40:32;9.7;;;6;;
56271;SDS011;42177;48.914;18.160;2024-01-30T14:45:32;7.4;;;5.5;;
56271;SDS011;42177;48.914;18.160;2024-01-30T14:50:32;7.4;;;5.5;;
56271;SDS011;42177;48.914;18.160;2024-01-30T14:55:32;6.6;;;5;;
56271;SDS011;42177;48.914;18.160;2024-01-30T15:00:32;6.6;;;5;;
56271;SDS011;42177;48.914;18.160;2024-01-30T15:05:32;5.9;;;4.3;;
56271;SDS011;42177;48.914;18.160;2024-01-30T15:10:32;5.9;;;4.3;;
56271;SDS011;42177;48.914;18.160;2024-01-30T15:15:32;7;;;4.2;;
56271;SDS011;42177;48.914;18.160;2024-01-30T15:20:32;7;;;4.2;;
56271;SDS011;42177;48.914;18.160;2024-01-30T15:25:32;6.1;;;4.2;;
56271;SDS011;42177;48.914;18.160;2024-01-30T15:30:32;6.1;;;4.2;;
56271;SDS011;42177;48.914;18.160;2024-01-30T15:35:32;6.3;;;4.5;;
56271;SDS011;42177;48.914;18.160;2024-01-30T15:40:32;6.3;;;4.5;;
56271;SDS011;42177;48.914;18.160;2024-01-30T15:45:32;6.1;;;4.6;;
56271;SDS011;42177;48.914;18.160;2024-01-30T15:50:32;6.1;;;4.6;;
56271;SDS011;42177;48.914;18.160;2024-01-30T15:55:32;6.4;;;4.7;;
56271;SDS011;42177;48.914;18.160;2024-01-30T16:00:32;6.4;;;4.7;;
56271;SDS011;42177;48.914;18.160;2024-01-30T16:05:32;5.7;;;4.7;;
56271;SDS011;42177;48.914;18.160;2024-01-30T16:10:32;5.7;;;4.7;;
56271;SDS011;42177;48.914;18.160;2024-01-30T16:15:32;9;;;5;;
56271;SDS011;42177;48.914;18.160;2024-01-30T16:20:32;9;;;5;;
56271;SDS011;42177;48.914;18.160;2024-01-30T16:25:32;7.7;;;5.5;;
56271;SDS011;42177;48.914;18.160;2024-01-30T16:30:32;7.7;;;5.5;;
56271;SDS011;42177;48.914;18.160;2024-01-30T16:35:32;6.7;;;5;;
56271;SDS011;42177;48.914;18.160;2024-01-30T16:40:32;6.7;;;5;;
56271;SDS011;42177;48.914;18.160;2024-01-30T16:45:32;7.7;;;5.7;;
56271;SDS011;42177;48.914;18.160;2024-01-30T16:50:32;7.7;;;5.7;;
56271;SDS011;42177;48.914;18.160;2024-01-30T16:55:32;8.5;;;6.6;;
56271;SDS011;42177;48.914;18.160;2024-01-30T17:00:32;8.5;;;6.6;;
56271;SDS011;42177;48.914;18.160;2024-01-30T17:05:33;8;;;6.5;;
56271;SDS011;42177;48.914;18.160;2024-01-30T17:10:32;8;;;6.5;;
56271;SDS011;42177;48.914;18.160;2024-01-30T17:15:32;8.5;;;6.5;;
56271;SDS011;42177;48.914;18.160;2024-01-30T17:20:32;8.5;;;6.5;;
56271;SDS011;42177;48.914;18.160;2024-01-30T17:25:32;9.8;;;7.2;;
56271;SDS011;42177;48.914;18.160;2024-01-30T17:30:32;9.8;;;7.2;;
56271;SDS011;42177;48.914;18.160;2024-01-30T17:35:32;9.6;;;7.1;;
56271;SDS011;42177;48.914;18.160;2024-01-30T17:40:32;9.6;;;7.1;;
56271;SDS011;42177;48.914;18.160;2024-01-30T17:45:32;9.6;;;7.4;;
56271;SDS011;42177;48.914;18.160;2024-01-30T17:50:32;9.6;;;7.4;;
56271;SDS011;42177;48.914;18.160;2024-01-30T17:55:32;10.3;;;7.8;;
56271;SDS011;42177;48.914;18.160;2024-01-30T18:00:32;10.3;;;7.8;;
56271;SDS011;42177;48.914;18.160;2024-01-30T18:05:32;9.8;;;7.4;;
56271;SDS011;42177;48.914;18.160;2024-01-30T18:10:32;9.8;;;7.4;;
56271;SDS011;42177;48.914;18.160;2024-01-30T18:15:32;10.9;;;8.2;;
56271;SDS011;42177;48.914;18.160;2024-01-30T18:20:32;10.9;;;8.2;;
56271;SDS011;42177;48.914;18.160;2024-01-30T18:25:32;11.8;;;8.6;;
56271;SDS011;42177;48.914;18.160;2024-01-30T18:30:32;11.8;;;8.6;;
56271;SDS011;42177;48.914;18.160;2024-01-30T18:35:32;12.4;;;8.3;;
56271;SDS011;42177;48.914;18.160;2024-01-30T18:40:32;12.4;;;8.3;;
56271;SDS011;42177;48.914;18.160;2024-01-30T18:45:32;10.6;;;7.8;;
56271;SDS011;42177;48.914;18.160;2024-01-30T18:50:32;10.6;;;7.8;;
56271;SDS011;42177;48.914;18.160;2024-01-30T18:55:33;12;;;8.9;;
56271;SDS011;42177;48.914;18.160;2024-01-30T19:00:33;12;;;8.9;;
56271;SDS011;42177;48.914;18.160;2024-01-30T19:05:32;11.6;;;8.9;;
56271;SDS011;42177;48.914;18.160;2024-01-30T19:10:32;11.6;;;8.9;;
56271;SDS011;42177;48.914;18.160;2024-01-30T19:15:33;11.8;;;8.7;;
56271;SDS011;42177;48.914;18.160;2024-01-30T19:20:32;11.8;;;8.7;;
56271;SDS011;42177;48.914;18.160;2024-01-30T19:25:32;11.9;;;9.1;;
56271;SDS011;42177;48.914;18.160;2024-01-30T19:30:32;11.9;;;9.1;;
56271;SDS011;42177;48.914;18.160;2024-01-30T19:35:32;14;;;9.9;;
56271;SDS011;42177;48.914;18.160;2024-01-30T19:40:32;14;;;9.9;;
56271;SDS011;42177;48.914;18.160;2024-01-30T19:45:32;12.2;;;9.2;;
56271;SDS011;42177;48.914;18.160;2024-01-30T19:50:32;12.2;;;9.2;;
56271;SDS011;42177;48.914;18.160;2024-01-30T19:55:33;12.2;;;9.8;;
56271;SDS011;42177;48.914;18.160;2024-01-30T20:00:32;12.2;;;9.8;;
56271;SDS011;42177;48.914;18.160;2024-01-30T20:05:33;12.7;;;9.5;;
56271;SDS011;42177;48.914;18.160;2024-01-30T20:10:33;12.7;;;9.5;;
56271;SDS011;42177;48.914;18.160;2024-01-30T20:15:33;13.5;;;9.8;;
56271;SDS011;42177;48.914;18.160;2024-01-30T20:20:33;13.5;;;9.8;;
56271;SDS011;42177;48.914;18.160;2024-01-30T20:25:32;14.6;;;9.7;;
56271;SDS011;42177;48.914;18.160;2024-01-30T20:30:32;14.6;;;9.7;;
56271;SDS011;42177;48.914;18.160;2024-01-30T20:35:32;13.4;;;10.1;;
56271;SDS011;42177;48.914;18.160;2024-01-30T20:40:33;13.4;;;10.1;;
56271;SDS011;42177;48.914;18.160;2024-01-30T20:45:32;13.2;;;9.9;;
56271;SDS011;42177;48.914;18.160;2024-01-30T20:50:32;13.2;;;9.9;;
56271;SDS011;42177;48.914;18.160;2024-01-30T20:55:32;13.6;;;10.5;;
56271;SDS011;42177;48.914;18.160;2024-01-30T21:00:32;13.6;;;10.5;;
56271;SDS011;42177;48.914;18.160;2024-01-30T21:05:32;13.2;;;10.2;;
56271;SDS011;42177;48.914;18.160;2024-01-30T21:10:33;13.2;;;10.2;;
56271;SDS011;42177;48.914;18.160;2024-01-30T21:15:33;14.5;;;11.3;;
56271;SDS011;42177;48.914;18.160;2024-01-30T21:20:33;14.5;;;11.3;;
56271;SDS011;42177;48.914;18.160;2024-01-30T21:25:32;16.3;;;11;;
56271;SDS011;42177;48.914;18.160;2024-01-30T21:30:33;16.3;;;11;;
56271;SDS011;42177;48.914;18.160;2024-01-30T21:35:33;14.2;;;10.6;;
56271;SDS011;42177;48.914;18.160;2024-01-30T21:40:33;14.2;;;10.6;;
56271;SDS011;42177;48.914;18.160;2024-01-30T21:45:32;15.7;;;11.9;;
56271;SDS011;42177;48.914;18.160;2024-01-30T21:50:33;15.7;;;11.9;;
56271;SDS011;42177;48.914;18.160;2024-01-30T21:55:32;13.8;;;10.9;;
56271;SDS011;42177;48.914;18.160;2024-01-30T22:00:32;13.8;;;10.9;;
56271;SDS011;42177;48.914;18.160;2024-01-30T22:05:32;14.2;;;10.7;;
56271;SDS011;42177;48.914;18.160;2024-01-30T22:10:33;14.2;;;10.7;;
56271;SDS011;42177;48.914;18.160;2024-01-30T22:15:32;14;;;11.1;;
56271;SDS011;42177;48.914;18.160;2024-01-30T22:20:32;14;;;11.1;;
56271;SDS011;42177;48.914;18.160;2024-01-30T22:25:32;12.9;;;10.2;;
56271;SDS011;42177;48.914;18.160;2024-01-30T22:30:33;12.9;;;10.2;;
56271;SDS011;42177;48.914;18.160;2024-01-30T22:35:32;13.6;;;10.4;;
56271;SDS011;42177;48.914;18.160;2024-01-30T22:40:33;13.6;;;10.4;;
56271;SDS011;42177;48.914;18.160;2024-01-30T22:45:32;13.5;;;10.2;;
56271;SDS011;42177;48.914;18.160;2024-01-30T22:50:33;13.5;;;10.2;;
56271;SDS011;42177;48.914;18.160;2024-01-30T22:55:32;15;;;10.1;;
56271;SDS011;42177;48.914;18.160;2024-01-30T23:00:32;15;;;10.1;;
56271;SDS011;42177;48.914;18.160;2024-01-30T23:05:32;12;;;9.4;;
56271;SDS011;42177;48.914;18.160;2024-01-30T23:10:33;12;;;9.4;;
56271;SDS011;42177;48.914;18.160;2024-01-30T23:15:32;12.7;;;9.4;;
56271;SDS011;42177;48.914;18.160;2024-01-30T23:20:32;12.7;;;9.4;;
56271;SDS011;42177;48.914;18.160;2024-01-30T23:25:32;12.1;;;9.9;;
56271;SDS011;42177;48.914;18.160;2024-01-30T23:30:33;12.1;;;9.9;;
56271;SDS011;42177;48.914;18.160;2024-01-30T23:35:32;12.5;;;9.7;;
56271;SDS011;42177;48.914;18.160;2024-01-30T23:40:32;12.5;;;9.7;;
56271;SDS011;42177;48.914;18.160;2024-01-30T23:45:33;13.4;;;10.2;;
56271;SDS011;42177;48.914;18.160;2024-01-30T23:50:33;13.4;;;10.2;;
56271;SDS011;42177;48.914;18.160;2024-01-30T23:55:32;12.7;;;10;;
